createdAt,value
2019-05-07T00:01:52.537Z,5.15
2019-05-07T00:04:23.255Z,4.95
2019-05-07T00:06:54.581Z,4.55
2019-05-07T00:09:25.856Z,6.00
2019-05-07T00:11:58.117Z,5.03
2019-05-07T00:14:29.364Z,5.45
2019-05-07T00:17:02.224Z,5.37
2019-05-07T00:19:33.710Z,5.62
2019-05-07T00:22:04.837Z,5.72
2019-05-07T00:24:36.139Z,6.17
2019-05-07T00:27:07.334Z,5.15
2019-05-07T00:29:38.452Z,6.30
2019-05-07T00:32:12.102Z,5.78
2019-05-07T00:34:45.168Z,5.78
2019-05-07T00:37:22.044Z,6.50
2019-05-07T00:40:13.119Z,8.58
2019-05-07T00:42:48.822Z,7.97
2019-05-07T00:45:23.892Z,7.70
2019-05-07T00:47:54.562Z,8.05
2019-05-07T00:50:27.441Z,7.67
2019-05-07T00:52:58.776Z,9.45
2019-05-07T00:55:30.017Z,8.03
2019-05-07T00:58:02.334Z,8.83
2019-05-07T01:00:33.820Z,8.13
2019-05-07T01:03:05.035Z,9.30
2019-05-07T01:05:36.466Z,10.08
2019-05-07T01:08:07.686Z,10.05
2019-05-07T01:10:38.894Z,9.75
2019-05-07T01:13:12.018Z,10.10
2019-05-07T01:15:43.279Z,10.85
2019-05-07T01:18:14.626Z,9.95
2019-05-07T01:20:45.836Z,11.65
2019-05-07T01:23:17.140Z,10.68
2019-05-07T01:25:48.488Z,10.28
2019-05-07T01:28:22.091Z,11.08
2019-05-07T01:30:53.001Z,11.70
2019-05-07T01:33:36.136Z,12.43
2019-05-07T01:36:13.212Z,18.02
2019-05-07T01:38:44.816Z,26.27
2019-05-07T01:41:16.098Z,48.05
2019-05-07T01:43:47.381Z,47.43
2019-05-07T01:46:18.663Z,45.48
2019-05-07T01:48:53.895Z,41.83
2019-05-07T01:51:22.966Z,44.45
2019-05-07T01:53:54.298Z,43.23
2019-05-07T01:56:25.371Z,45.17
2019-05-07T01:58:56.613Z,42.05
2019-05-07T02:01:28.212Z,32.33
2019-05-07T02:04:18.303Z,25.92
2019-05-07T02:07:07.281Z,23.45
2019-05-07T02:09:42.332Z,35.38
2019-05-07T02:12:14.559Z,27.27
2019-05-07T02:14:45.786Z,31.97
2019-05-07T02:17:17.004Z,34.05
2019-05-07T02:19:48.270Z,31.68
2019-05-07T02:22:22.533Z,27.20
2019-05-07T02:24:53.874Z,26.25
2019-05-07T02:27:25.066Z,25.68
2019-05-07T02:29:56.760Z,22.30
2019-05-07T02:32:27.961Z,23.38
2019-05-07T02:34:59.152Z,24.10
2019-05-07T02:37:41.785Z,28.62
2019-05-07T02:40:14.219Z,26.87
2019-05-07T02:42:45.577Z,27.77
2019-05-07T02:45:18.415Z,40.92
2019-05-07T02:47:52.303Z,43.58
2019-05-07T02:50:35.603Z,49.85
2019-05-07T02:53:14.632Z,40.58
2019-05-07T02:55:52.671Z,53.63
2019-05-07T02:58:24.159Z,77.72
2019-05-07T03:00:55.567Z,43.70
2019-05-07T03:03:26.780Z,56.77
2019-05-07T03:05:58.008Z,62.95
2019-05-07T03:08:29.219Z,39.00
2019-05-07T03:11:03.357Z,34.20
2019-05-07T03:13:34.141Z,29.72
2019-05-07T03:16:05.279Z,28.92
2019-05-07T03:18:36.544Z,33.08
2019-05-07T03:21:12.729Z,18.73
2019-05-07T03:26:36.998Z,16.23
2019-05-07T03:29:12.845Z,14.33
2019-05-07T03:31:56.430Z,13.93
2019-05-07T03:34:36.822Z,12.07
2019-05-07T03:37:08.718Z,13.28
2019-05-07T03:39:42.936Z,13.55
2019-05-07T03:42:23.918Z,12.93
2019-05-07T03:44:58.183Z,19.98
2019-05-07T03:47:36.497Z,18.12
2019-05-07T03:50:14.231Z,12.18
2019-05-07T03:52:44.290Z,12.35
2019-05-07T03:55:15.574Z,10.23
2019-05-07T03:57:46.967Z,8.93
2019-05-07T04:00:18.235Z,9.43
2019-05-07T04:02:52.464Z,8.80
2019-05-07T04:05:23.186Z,9.43
2019-05-07T04:07:54.934Z,9.03
2019-05-07T04:10:26.158Z,10.13
2019-05-07T04:12:57.351Z,10.20
2019-05-07T04:15:28.678Z,10.60
2019-05-07T04:18:03.663Z,9.45
2019-05-07T04:20:35.118Z,9.58
2019-05-07T04:23:08.847Z,9.95
2019-05-07T04:25:53.129Z,9.70
2019-05-07T04:28:26.258Z,8.95
2019-05-07T04:30:58.578Z,9.58
2019-05-07T04:33:33.340Z,9.40
2019-05-07T04:36:14.565Z,8.33
2019-05-07T04:38:45.819Z,8.13
2019-05-07T04:41:17.153Z,8.88
2019-05-07T04:43:48.466Z,8.30
2019-05-07T04:46:19.623Z,7.00
2019-05-07T04:48:52.890Z,7.30
2019-05-07T04:51:25.812Z,7.47
2019-05-07T04:53:57.153Z,7.37
2019-05-07T04:56:28.335Z,6.50
2019-05-07T04:58:59.575Z,6.72
2019-05-07T05:01:32.985Z,6.42
2019-05-07T05:04:21.053Z,8.85
2019-05-07T05:06:39.068Z,6.97
2019-05-07T05:09:12.527Z,7.20
2019-05-07T05:11:43.999Z,7.65
2019-05-07T05:14:15.583Z,7.15
2019-05-07T05:16:46.637Z,6.75
2019-05-07T05:19:17.851Z,6.05
2019-05-07T05:21:53.632Z,5.60
2019-05-07T05:24:32.971Z,6.97
2019-05-07T05:27:04.418Z,9.23
2019-05-07T05:29:36.827Z,11.97
2019-05-07T05:32:08.025Z,11.65
2019-05-07T05:34:39.256Z,11.90
2019-05-07T05:37:11.927Z,11.93
2019-05-07T05:39:43.443Z,10.78
2019-05-07T05:42:22.588Z,10.30
2019-05-07T05:44:54.152Z,9.73
2019-05-07T05:47:25.512Z,8.98
2019-05-07T05:49:56.564Z,8.38
2019-05-07T05:52:38.241Z,9.28
2019-05-07T05:55:12.620Z,8.70
2019-05-07T05:57:51.974Z,7.62
2019-05-07T06:00:38.624Z,8.80
2019-05-07T06:03:27.819Z,7.10
2019-05-07T06:06:06.507Z,8.70
2019-05-07T06:08:57.667Z,8.85
2019-05-07T06:11:32.199Z,7.17
2019-05-07T06:14:06.100Z,8.20
2019-05-07T06:16:56.377Z,7.85
2019-05-07T06:19:42.405Z,7.17
2019-05-07T06:22:18.246Z,6.72
2019-05-07T06:24:52.157Z,6.47
2019-05-07T06:27:23.504Z,5.42
2019-05-07T06:29:54.924Z,7.45
2019-05-07T06:32:26.219Z,6.03
2019-05-07T06:34:57.407Z,4.85
2019-05-07T06:37:32.080Z,6.45
2019-05-07T06:40:06.058Z,7.10
2019-05-07T06:42:39.315Z,7.42
2019-05-07T06:45:24.198Z,7.40
2019-05-07T06:47:55.526Z,6.72
2019-05-07T06:50:26.575Z,6.78
2019-05-07T06:52:57.776Z,7.15
2019-05-07T06:55:29.264Z,6.60
2019-05-07T06:58:02.455Z,4.42
2019-05-07T07:00:44.145Z,3.55
2019-05-07T07:03:25.633Z,3.27
2019-05-07T07:05:58.522Z,2.90
2019-05-07T07:08:41.974Z,3.62
2019-05-07T07:11:17.910Z,4.10
2019-05-07T07:13:49.133Z,5.03
2019-05-07T07:16:22.464Z,5.78
2019-05-07T07:19:05.468Z,6.12
2019-05-07T07:21:36.570Z,5.67
2019-05-07T07:24:07.832Z,5.33
2019-05-07T07:26:39.212Z,5.72
2019-05-07T07:29:13.218Z,4.90
2019-05-07T07:31:52.784Z,5.15
2019-05-07T07:34:25.226Z,4.72
2019-05-07T07:37:13.527Z,5.67
2019-05-07T07:39:43.112Z,5.37
2019-05-07T07:42:14.510Z,4.62
2019-05-07T07:44:46.075Z,4.78
2019-05-07T07:47:17.527Z,4.05
2019-05-07T07:49:48.874Z,4.03
2019-05-07T07:52:20.021Z,4.17
2019-05-07T07:54:52.928Z,3.40
2019-05-07T07:57:42.626Z,3.05
2019-05-07T08:00:23.365Z,3.55
2019-05-07T08:02:56.130Z,2.90
2019-05-07T08:05:27.585Z,2.87
2019-05-07T08:07:58.922Z,2.40
2019-05-07T08:10:32.402Z,3.25
2019-05-07T08:13:05.699Z,2.75
2019-05-07T08:15:37.172Z,2.90
2019-05-07T08:18:08.523Z,3.30
2019-05-07T08:20:40.073Z,3.42
2019-05-07T08:23:12.213Z,3.00
2019-05-07T08:25:52.259Z,2.90
2019-05-07T08:28:23.466Z,3.42
2019-05-07T08:31:02.979Z,2.70
2019-05-07T08:33:38.598Z,3.85
2019-05-07T08:36:14.873Z,2.90
2019-05-07T08:38:53.103Z,2.58
2019-05-07T08:41:26.642Z,4.10
2019-05-07T08:44:11.547Z,3.70
2019-05-07T08:46:42.517Z,2.95
2019-05-07T08:49:15.585Z,3.00
2019-05-07T08:51:48.533Z,2.87
2019-05-07T08:54:19.803Z,3.70
2019-05-07T08:56:52.756Z,3.20
2019-05-07T08:59:24.562Z,2.87
2019-05-07T09:01:55.808Z,3.05
2019-05-07T09:04:26.986Z,2.85
2019-05-07T09:06:58.299Z,4.30
2019-05-07T09:09:32.085Z,2.80
2019-05-07T09:12:03.207Z,2.85
2019-05-07T09:14:34.472Z,2.70
2019-05-07T09:17:05.821Z,3.62
2019-05-07T09:19:50.060Z,2.77
2019-05-07T09:22:12.492Z,2.65
2019-05-07T09:24:42.977Z,2.70
2019-05-07T09:27:15.883Z,2.85
2019-05-07T09:29:52.065Z,2.92
2019-05-07T09:32:27.578Z,3.40
2019-05-07T09:35:09.837Z,3.33
2019-05-07T09:37:42.091Z,4.67
2019-05-07T09:40:13.673Z,3.50
2019-05-07T09:42:44.935Z,3.47
2019-05-07T09:45:16.187Z,3.45
2019-05-07T09:47:48.414Z,3.37
2019-05-07T09:50:21.877Z,3.35
2019-05-07T09:52:52.458Z,2.90
2019-05-07T09:55:23.905Z,4.03
2019-05-07T09:57:55.118Z,3.40
2019-05-07T10:00:26.352Z,3.15
2019-05-07T10:02:57.852Z,3.20
2019-05-07T10:05:29.184Z,3.72
2019-05-07T10:08:01.863Z,4.05
2019-05-07T10:10:33.413Z,7.78
2019-05-07T10:13:12.956Z,5.80
2019-05-07T10:15:44.196Z,4.40
2019-05-07T10:18:17.208Z,3.52
2019-05-07T10:20:48.452Z,2.98
2019-05-07T10:23:23.260Z,3.08
2019-05-07T10:25:54.953Z,3.07
2019-05-07T10:28:28.186Z,3.20
2019-05-07T10:30:59.552Z,3.20
2019-05-07T10:33:31.994Z,3.30
2019-05-07T10:36:03.486Z,3.67
2019-05-07T10:38:34.749Z,3.83
2019-05-07T10:41:07.871Z,3.60
2019-05-07T10:43:42.811Z,4.10
2019-05-07T10:46:27.426Z,4.20
2019-05-07T10:49:06.168Z,3.72
2019-05-07T10:51:37.497Z,4.22
2019-05-07T10:54:09.024Z,4.60
2019-05-07T10:56:41.885Z,3.65
2019-05-07T10:59:13.355Z,4.22
2019-05-07T11:01:46.470Z,3.90
2019-05-07T11:04:17.943Z,3.67
2019-05-07T11:06:52.146Z,3.22
2019-05-07T11:09:22.226Z,3.83
2019-05-07T11:11:53.542Z,4.00
2019-05-07T11:14:27.618Z,3.98
2019-05-07T11:17:02.508Z,4.30
2019-05-07T11:19:33.897Z,4.33
2019-05-07T11:22:06.612Z,4.28
2019-05-07T11:24:39.832Z,3.90
2019-05-07T11:27:11.919Z,4.30
2019-05-07T11:29:43.445Z,4.17
2019-05-07T11:32:14.706Z,5.03
2019-05-07T11:34:46.589Z,4.42
2019-05-07T11:37:19.879Z,5.00
2019-05-07T11:39:52.329Z,3.22
2019-05-07T11:42:25.192Z,4.08
2019-05-07T11:44:56.899Z,3.52
2019-05-07T11:47:31.833Z,5.35
2019-05-07T11:50:22.620Z,7.03
2019-05-07T11:53:01.352Z,9.25
2019-05-07T11:55:32.783Z,5.80
2019-05-07T11:58:03.873Z,6.05
2019-05-07T12:00:55.208Z,6.00
2019-05-07T12:03:26.345Z,4.67
2019-05-07T12:05:57.609Z,4.53
2019-05-07T12:08:40.950Z,5.67
2019-05-07T12:11:02.504Z,6.25
2019-05-07T12:13:33.948Z,5.10
2019-05-07T12:16:05.238Z,4.78
2019-05-07T12:18:36.412Z,5.72
2019-05-07T12:21:19.971Z,5.35
2019-05-07T12:23:44.499Z,5.90
2019-05-07T12:26:15.583Z,6.03
2019-05-07T12:28:47.026Z,5.10
2019-05-07T12:31:36.525Z,5.40
2019-05-07T12:34:12.265Z,6.40
2019-05-07T12:36:43.726Z,6.00
2019-05-07T12:39:15.075Z,6.30
2019-05-07T12:41:46.233Z,6.10
2019-05-07T12:44:17.555Z,6.37
2019-05-07T12:46:48.808Z,5.25
2019-05-07T12:49:21.996Z,5.37
2019-05-07T12:51:54.888Z,6.40
2019-05-07T12:54:36.524Z,5.22
2019-05-07T12:57:06.700Z,5.92
2019-05-07T12:59:38.130Z,5.15
2019-05-07T13:02:26.782Z,5.50
2019-05-07T13:04:47.091Z,6.30
2019-05-07T13:07:25.387Z,5.45
2019-05-07T13:09:58.286Z,5.15
2019-05-07T13:12:29.541Z,4.60
2019-05-07T13:15:02.772Z,4.37
2019-05-07T13:17:34.159Z,4.83
2019-05-07T13:20:07.013Z,4.90
2019-05-07T13:22:38.265Z,5.53
2019-05-07T13:25:09.501Z,8.18
2019-05-07T13:27:42.731Z,5.65
2019-05-07T13:30:13.622Z,4.55
2019-05-07T13:32:48.119Z,8.40
2019-05-07T13:35:18.240Z,5.47
2019-05-07T13:37:57.023Z,5.22
2019-05-07T13:40:34.214Z,5.85
2019-05-07T13:43:07.968Z,4.85
2019-05-07T13:45:49.005Z,4.28
2019-05-07T13:48:26.687Z,4.80
2019-05-07T13:50:59.140Z,4.97
2019-05-07T13:53:32.259Z,4.83
2019-05-07T13:56:04.430Z,4.85
2019-05-07T13:58:35.664Z,4.95
2019-05-07T14:01:22.855Z,5.35
2019-05-07T14:03:54.471Z,5.55
2019-05-07T14:06:42.596Z,4.33
2019-05-07T14:09:17.066Z,5.35
2019-05-07T14:11:48.503Z,5.35
2019-05-07T14:14:22.177Z,4.80
2019-05-07T14:16:53.356Z,4.60
2019-05-07T14:19:24.961Z,4.62
2019-05-07T14:21:55.968Z,4.53
2019-05-07T14:24:27.246Z,10.68
2019-05-07T14:26:58.696Z,4.42
2019-05-07T14:29:31.893Z,4.33
2019-05-07T14:32:05.730Z,7.33
2019-05-07T14:34:38.782Z,4.47
2019-05-07T14:37:17.401Z,4.40
2019-05-07T14:39:48.854Z,4.37
2019-05-07T14:42:32.717Z,4.72
2019-05-07T14:45:05.487Z,4.95
2019-05-07T14:47:36.922Z,4.12
2019-05-07T14:50:09.612Z,4.78
2019-05-07T14:52:43.293Z,3.98
2019-05-07T14:55:14.603Z,4.75
2019-05-07T14:57:45.760Z,4.30
2019-05-07T15:00:17.150Z,3.95
2019-05-07T15:02:49.214Z,4.67
2019-05-07T15:05:25.070Z,4.20
2019-05-07T15:08:07.405Z,4.58
2019-05-07T15:10:29.476Z,6.40
2019-05-07T15:13:02.228Z,7.90
2019-05-07T15:15:33.735Z,6.12
2019-05-07T15:18:15.418Z,6.72
2019-05-07T15:20:45.412Z,6.28
2019-05-07T15:23:22.538Z,5.58
2019-05-07T15:25:54.842Z,5.92
2019-05-07T15:28:26.440Z,5.90
2019-05-07T15:31:00.252Z,5.15
2019-05-07T15:33:32.375Z,4.95
2019-05-07T15:36:06.443Z,4.65
2019-05-07T15:38:36.959Z,6.03
2019-05-07T15:41:08.512Z,7.85
2019-05-07T15:43:43.912Z,8.35
2019-05-07T15:46:13.145Z,8.23
2019-05-07T15:48:45.633Z,10.10
2019-05-07T15:51:17.232Z,10.13
2019-05-07T15:53:54.362Z,11.40
2019-05-07T15:56:25.804Z,10.08
2019-05-07T15:58:57.163Z,9.35
2019-05-07T16:01:28.617Z,8.93
2019-05-07T16:04:02.834Z,7.08
2019-05-07T16:06:34.134Z,6.37
2019-05-07T16:09:07.794Z,6.17
2019-05-07T16:11:39.328Z,6.55
2019-05-07T16:14:14.503Z,7.15
2019-05-07T16:16:47.143Z,8.80
2019-05-07T16:19:24.029Z,8.28
2019-05-07T16:21:56.376Z,6.40
2019-05-07T16:24:27.839Z,6.65
2019-05-07T16:26:59.602Z,6.75
2019-05-07T16:29:33.753Z,7.78
2019-05-07T16:32:04.140Z,6.47
2019-05-07T16:34:37.342Z,6.55
2019-05-07T16:37:08.616Z,6.58
2019-05-07T16:39:41.991Z,6.15
2019-05-07T16:42:14.254Z,6.20
2019-05-07T16:44:45.590Z,5.70
2019-05-07T16:47:18.167Z,6.37
2019-05-07T16:49:51.130Z,5.28
2019-05-07T16:52:24.243Z,5.12
2019-05-07T16:54:55.467Z,5.03
2019-05-07T16:57:34.624Z,5.67
2019-05-07T17:00:07.698Z,4.90
2019-05-07T17:02:41.697Z,5.08
2019-05-07T17:05:14.612Z,4.87
2019-05-07T17:07:53.712Z,5.75
2019-05-07T17:10:25.312Z,5.45
2019-05-07T17:12:56.523Z,8.50
2019-05-07T17:15:28.053Z,8.08
2019-05-07T17:17:59.602Z,6.55
2019-05-07T17:20:32.712Z,8.78
2019-05-07T17:23:04.047Z,7.53
2019-05-07T17:25:38.452Z,8.55
2019-05-07T17:28:12.430Z,7.75
2019-05-07T17:30:45.285Z,9.15
2019-05-07T17:33:17.013Z,8.25
2019-05-07T17:35:49.203Z,8.10
2019-05-07T17:38:22.866Z,8.15
2019-05-07T17:40:53.480Z,10.08
2019-05-07T17:43:24.802Z,13.25
2019-05-07T17:45:56.104Z,13.53
2019-05-07T17:48:27.748Z,13.70
2019-05-07T17:51:00.638Z,16.77
2019-05-07T17:53:32.339Z,18.73
2019-05-07T17:56:04.265Z,18.07
2019-05-07T17:58:35.446Z,17.67
2019-05-07T18:01:06.752Z,17.90
2019-05-07T18:03:42.827Z,14.78
2019-05-07T18:06:14.273Z,14.05
2019-05-07T18:08:46.511Z,13.35
2019-05-07T18:11:21.170Z,11.80
2019-05-07T18:13:51.839Z,11.85
2019-05-07T18:16:24.831Z,11.33
2019-05-07T18:18:56.092Z,10.93
2019-05-07T18:21:27.384Z,11.88
2019-05-07T18:24:12.678Z,10.82
2019-05-07T18:26:33.750Z,10.93
2019-05-07T18:29:06.365Z,12.45
2019-05-07T18:31:42.049Z,13.18
2019-05-07T18:34:13.443Z,12.50
2019-05-07T18:36:44.722Z,12.35
2019-05-07T18:39:16.040Z,11.93
2019-05-07T18:41:47.305Z,10.45
2019-05-07T18:44:22.125Z,11.03
2019-05-07T18:46:55.836Z,11.40
2019-05-07T18:49:27.487Z,23.62
2019-05-07T18:51:58.981Z,10.58
2019-05-07T18:54:31.541Z,10.95
2019-05-07T18:57:03.182Z,11.63
2019-05-07T18:59:36.861Z,10.50
2019-05-07T19:02:09.221Z,11.15
2019-05-07T19:04:42.252Z,11.80
2019-05-07T19:07:13.573Z,11.95
2019-05-07T19:09:47.738Z,12.82
2019-05-07T19:12:22.091Z,12.78
2019-05-07T19:14:53.883Z,13.68
2019-05-07T19:17:25.847Z,12.35
2019-05-07T19:19:57.146Z,11.85
2019-05-07T19:22:28.289Z,10.30
2019-05-07T19:24:59.733Z,11.80
2019-05-07T19:27:32.858Z,10.65
2019-05-07T19:30:05.150Z,10.18
2019-05-07T19:32:38.674Z,9.90
2019-05-07T19:35:12.369Z,9.58
2019-05-07T19:37:43.789Z,8.85
2019-05-07T19:40:16.076Z,9.28
2019-05-07T19:42:48.728Z,9.28
2019-05-07T19:45:24.497Z,11.40
2019-05-07T19:47:56.147Z,10.13
2019-05-07T19:50:27.574Z,11.50
2019-05-07T19:52:58.785Z,11.18
2019-05-07T19:55:32.824Z,12.30
2019-05-07T19:58:05.901Z,19.23
2019-05-07T20:00:37.843Z,14.38
2019-05-07T20:03:12.985Z,13.85
2019-05-07T20:05:47.775Z,11.20
2019-05-07T20:08:20.307Z,10.93
2019-05-07T20:10:53.190Z,11.97
2019-05-07T20:13:36.485Z,11.70
2019-05-07T20:16:15.340Z,11.00
2019-05-07T20:18:47.718Z,12.25
2019-05-07T20:21:19.503Z,12.55
2019-05-07T20:23:52.912Z,12.47
2019-05-07T20:26:26.147Z,11.43
2019-05-07T20:28:58.184Z,12.88
2019-05-07T20:31:33.501Z,15.20
2019-05-07T20:34:05.359Z,12.20
2019-05-07T20:36:38.317Z,12.60
2019-05-07T20:39:12.789Z,12.78
2019-05-07T20:41:44.575Z,13.28
2019-05-07T20:44:15.945Z,14.03
2019-05-07T20:46:50.100Z,13.25
2019-05-07T20:49:22.512Z,12.55
2019-05-07T20:51:54.038Z,12.50
2019-05-07T20:54:33.107Z,12.33
2019-05-07T20:57:06.012Z,12.20
2019-05-07T20:59:37.286Z,22.07
2019-05-07T21:02:08.494Z,19.50
2019-05-07T21:04:43.459Z,23.25
2019-05-07T21:07:14.749Z,19.65
2019-05-07T21:09:46.006Z,21.07
2019-05-07T21:12:18.877Z,22.45
2019-05-07T21:14:52.340Z,21.65
2019-05-07T21:17:24.276Z,22.10
2019-05-07T21:19:55.516Z,24.52
2019-05-07T21:22:26.861Z,23.87
2019-05-07T21:24:58.189Z,20.15
2019-05-07T21:27:29.566Z,18.60
2019-05-07T21:30:02.482Z,19.23
2019-05-07T21:32:35.632Z,18.17
2019-05-07T21:35:09.126Z,16.67
2019-05-07T21:37:41.797Z,15.90
2019-05-07T21:40:13.161Z,15.48
2019-05-07T21:42:45.708Z,12.60
2019-05-07T21:45:18.700Z,10.80
2019-05-07T21:47:54.890Z,10.93
2019-05-07T21:50:27.280Z,10.63
2019-05-07T21:53:02.700Z,9.93
2019-05-07T21:55:58.875Z,10.28
2019-05-07T21:58:25.880Z,8.45
2019-05-07T22:01:07.598Z,9.20
2019-05-07T22:03:43.023Z,8.50
2019-05-07T22:06:13.294Z,8.65
2019-05-07T22:08:46.250Z,9.40
2019-05-07T22:11:17.709Z,9.25
2019-05-07T22:13:49.064Z,8.93
2019-05-07T22:16:22.160Z,9.68
2019-05-07T22:18:54.040Z,9.43
2019-05-07T22:21:28.130Z,10.10
2019-05-07T22:23:59.636Z,9.25
2019-05-07T22:26:32.777Z,11.28
2019-05-07T22:29:04.179Z,11.28
2019-05-07T22:31:43.745Z,11.20
2019-05-07T22:34:29.675Z,11.43
2019-05-07T22:37:03.296Z,11.57
2019-05-07T22:39:49.738Z,11.33
2019-05-07T22:42:22.573Z,11.88
2019-05-07T22:44:55.063Z,11.12
2019-05-07T22:47:28.368Z,11.43
2019-05-07T22:49:59.813Z,11.73
2019-05-07T22:52:32.771Z,12.55
2019-05-07T22:55:05.095Z,11.10
2019-05-07T22:57:42.011Z,10.53
2019-05-07T23:00:15.823Z,10.45
2019-05-07T23:02:48.445Z,9.83
2019-05-07T23:05:19.932Z,10.28
2019-05-07T23:07:52.663Z,10.10
2019-05-07T23:10:24.019Z,10.10
2019-05-07T23:12:55.761Z,7.97
2019-05-07T23:15:27.196Z,9.15
2019-05-07T23:17:59.560Z,9.95
2019-05-07T23:20:31.932Z,10.30
2019-05-07T23:23:03.431Z,9.78
2019-05-07T23:25:36.643Z,10.00
2019-05-07T23:28:09.567Z,9.40
2019-05-07T23:30:42.148Z,10.63
2019-05-07T23:33:14.821Z,11.15
2019-05-07T23:35:46.115Z,13.03
2019-05-07T23:38:17.537Z,12.47
2019-05-07T23:40:52.914Z,13.78
2019-05-07T23:43:24.927Z,14.60
2019-05-07T23:45:57.004Z,15.23
2019-05-07T23:48:33.865Z,15.15
2019-05-07T23:51:05.130Z,14.98
2019-05-07T23:53:38.163Z,16.07
2019-05-07T23:56:13.036Z,17.60
2019-05-07T23:58:44.029Z,16.12
